Time;durP1;ratioP1;P1;durP2;ratioP2;P2;SDS_P1;SDS_P2;PMS_P1;PMS_P2;Temp;Humidity;BMP_temperature;BMP_pressure;BME280_temperature;BME280_humidity;BME280_pressure;Samples;Min_cycle;Max_cycle;Signal;HPM_P1;HPM_P2
2021/10/10 00:02:16;;;;;;;10.68;4.47;;;8.00;99.90;;;;;;5027176;28;20087;-73
2021/10/10 00:04:42;;;;;;;7.85;3.78;;;8.00;99.90;;;;;;5026854;28;20410;-73
2021/10/10 00:07:08;;;;;;;15.18;3.72;;;7.90;99.90;;;;;;5025808;28;20033;-73
2021/10/10 00:09:34;;;;;;;8.05;3.90;;;7.90;99.90;;;;;;5027120;28;20543;-74
2021/10/10 00:11:59;;;;;;;12.77;4.18;;;7.90;99.90;;;;;;5026823;28;20041;-73
2021/10/10 00:14:25;;;;;;;9.02;4.30;;;7.80;99.90;;;;;;5026932;28;20079;-73
2021/10/10 00:16:51;;;;;;;12.27;3.40;;;7.70;99.90;;;;;;5025848;28;20033;-73
2021/10/10 00:19:17;;;;;;;10.20;4.50;;;7.70;99.90;;;;;;5026729;28;20037;-72
2021/10/10 00:21:42;;;;;;;9.35;5.03;;;7.70;99.90;;;;;;5027095;28;20034;-73
2021/10/10 00:24:08;;;;;;;8.23;4.40;;;7.60;99.90;;;;;;5026494;28;20030;-73
2021/10/10 00:26:35;;;;;;;12.30;3.97;;;7.60;99.90;;;;;;5026841;28;20124;-73
2021/10/10 00:29:00;;;;;;;7.68;4.15;;;7.50;99.90;;;;;;5025159;28;20952;-72
2021/10/10 00:31:26;;;;;;;11.77;3.72;;;7.50;99.90;;;;;;5025152;28;20058;-73
2021/10/10 00:33:51;;;;;;;6.45;3.35;;;7.40;99.90;;;;;;5026068;28;20034;-72
2021/10/10 00:36:17;;;;;;;17.45;4.13;;;7.40;99.90;;;;;;5026122;28;20109;-73
2021/10/10 00:38:43;;;;;;;9.85;4.10;;;7.40;99.90;;;;;;5026713;28;20033;-73
2021/10/10 00:41:09;;;;;;;9.30;4.47;;;7.30;99.90;;;;;;5026351;28;20037;-75
2021/10/10 00:43:35;;;;;;;14.15;3.72;;;7.30;99.90;;;;;;5026819;28;20033;-72
2021/10/10 00:46:00;;;;;;;9.75;4.63;;;7.30;99.90;;;;;;5025770;28;20045;-72
2021/10/10 00:48:26;;;;;;;7.28;3.22;;;7.30;99.90;;;;;;5026176;28;20741;-72
2021/10/10 00:50:52;;;;;;;10.32;3.70;;;7.30;99.90;;;;;;5026129;28;20030;-73
2021/10/10 00:53:19;;;;;;;6.70;3.50;;;7.20;99.90;;;;;;5025999;28;20056;-73
2021/10/10 00:55:53;;;;;;;6.90;3.65;;;7.20;99.90;;;;;;5026087;28;20037;-73
2021/10/10 00:58:25;;;;;;;9.07;3.55;;;7.20;99.90;;;;;;5025783;28;20028;-73
2021/10/10 01:00:53;;;;;;;18.02;4.18;;;7.20;99.90;;;;;;5025580;28;20109;-73
2021/10/10 01:03:20;;;;;;;6.85;3.70;;;7.10;99.90;;;;;;5025832;28;20022;-72
2021/10/10 01:05:46;;;;;;;13.65;4.53;;;7.10;99.90;;;;;;5024802;28;20033;-72
2021/10/10 01:08:16;;;;;;;4.97;2.83;;;7.10;99.90;;;;;;5026327;28;20021;-73
2021/10/10 01:10:44;;;;;;;17.83;4.05;;;7.00;99.90;;;;;;5026193;28;20026;-72
2021/10/10 01:13:10;;;;;;;15.15;3.90;;;7.10;99.90;;;;;;5025636;28;20030;-73
2021/10/10 01:15:36;;;;;;;10.00;4.38;;;7.00;99.90;;;;;;5024332;28;20040;-71
2021/10/10 01:18:02;;;;;;;9.35;4.35;;;7.00;99.90;;;;;;5025820;28;20069;-71
2021/10/10 01:20:27;;;;;;;7.05;3.80;;;7.00;99.90;;;;;;5023951;28;20026;-72
2021/10/10 01:22:54;;;;;;;8.57;4.10;;;6.90;99.90;;;;;;5025661;28;20028;-72
2021/10/10 01:25:20;;;;;;;10.65;4.32;;;6.90;99.90;;;;;;5025300;28;20022;-72
2021/10/10 01:27:45;;;;;;;6.78;3.58;;;6.90;99.90;;;;;;5024475;28;20026;-73
2021/10/10 01:30:11;;;;;;;9.10;4.57;;;6.90;99.90;;;;;;5024976;28;20478;-73
2021/10/10 01:32:37;;;;;;;6.22;3.80;;;6.90;99.90;;;;;;5025426;28;20073;-73
2021/10/10 01:35:03;;;;;;;9.18;4.70;;;6.90;99.90;;;;;;5024532;28;20052;-73
2021/10/10 01:37:29;;;;;;;8.38;4.10;;;6.90;99.90;;;;;;5025370;28;20087;-73
2021/10/10 01:39:54;;;;;;;9.52;4.10;;;6.90;99.90;;;;;;5025426;28;20034;-73
2021/10/10 01:42:20;;;;;;;7.72;3.67;;;6.80;99.90;;;;;;5024922;28;20022;-73
2021/10/10 01:44:45;;;;;;;10.48;3.88;;;6.80;99.90;;;;;;5024957;28;20034;-73
2021/10/10 01:47:11;;;;;;;11.18;4.22;;;6.70;99.90;;;;;;5024605;28;20468;-73
2021/10/10 01:49:40;;;;;;;12.85;4.53;;;6.80;99.90;;;;;;5025095;28;20060;-72
2021/10/10 01:52:07;;;;;;;13.52;4.47;;;6.80;99.90;;;;;;5022337;28;20030;-72
2021/10/10 01:54:32;;;;;;;8.82;3.75;;;6.70;99.90;;;;;;5024401;28;20033;-72
2021/10/10 01:56:58;;;;;;;13.05;4.10;;;6.70;99.90;;;;;;5024667;28;20030;-72
2021/10/10 01:59:24;;;;;;;8.88;3.72;;;6.70;99.90;;;;;;5023805;28;20090;-73
2021/10/10 02:01:49;;;;;;;10.27;3.38;;;6.70;99.90;;;;;;5024514;28;20034;-72
2021/10/10 02:04:15;;;;;;;6.88;3.35;;;6.70;99.90;;;;;;5024666;28;20089;-72
2021/10/10 02:06:41;;;;;;;6.93;3.60;;;6.60;99.90;;;;;;5024665;28;20037;-73
2021/10/10 02:09:07;;;;;;;11.27;3.92;;;6.60;99.90;;;;;;5025027;28;20062;-73
2021/10/10 02:11:32;;;;;;;10.35;4.07;;;6.60;99.90;;;;;;5024478;28;20034;-72
2021/10/10 02:13:58;;;;;;;9.25;3.88;;;6.50;99.90;;;;;;5024785;28;20380;-73
2021/10/10 02:16:24;;;;;;;12.30;3.38;;;6.60;99.90;;;;;;5024223;28;20041;-73
2021/10/10 02:18:49;;;;;;;9.90;3.95;;;6.50;99.90;;;;;;5024029;28;20100;-73
2021/10/10 02:21:15;;;;;;;12.50;3.63;;;6.50;99.90;;;;;;5023140;28;20034;-73
2021/10/10 02:23:40;;;;;;;9.95;3.88;;;6.50;99.90;;;;;;5024547;28;20044;-73
2021/10/10 02:26:06;;;;;;;8.65;3.80;;;6.40;99.90;;;;;;5024506;28;20022;-72
2021/10/10 02:28:32;;;;;;;7.32;3.63;;;6.40;99.90;;;;;;5024277;28;20434;-72
2021/10/10 02:30:58;;;;;;;7.97;3.70;;;6.40;99.90;;;;;;5023664;28;20080;-72
2021/10/10 02:33:23;;;;;;;7.72;3.85;;;6.40;99.90;;;;;;5024739;28;20026;-72
2021/10/10 02:35:49;;;;;;;9.88;3.88;;;6.60;99.90;;;;;;5024266;28;20040;-73
2021/10/10 02:38:15;;;;;;;11.38;3.88;;;6.40;99.90;;;;;;5023748;28;20072;-72
2021/10/10 02:40:41;;;;;;;11.55;4.00;;;6.30;99.90;;;;;;5023243;28;20026;-72
2021/10/10 02:43:07;;;;;;;8.38;4.25;;;6.30;99.90;;;;;;5024679;28;20018;-74
2021/10/10 02:45:33;;;;;;;9.07;3.50;;;6.30;99.90;;;;;;5023525;28;20358;-72
2021/10/10 02:47:59;;;;;;;8.52;3.75;;;6.20;99.90;;;;;;5022609;28;20455;-72
2021/10/10 02:50:24;;;;;;;7.53;3.63;;;6.20;99.90;;;;;;5024452;28;20509;-73
2021/10/10 02:52:50;;;;;;;9.68;3.90;;;6.30;99.90;;;;;;5023824;28;20022;-73
2021/10/10 02:55:15;;;;;;;7.28;3.78;;;6.20;99.90;;;;;;5024536;28;20041;-73
2021/10/10 02:57:41;;;;;;;10.13;4.22;;;6.20;99.90;;;;;;5024478;28;20053;-73
2021/10/10 03:00:08;;;;;;;13.32;3.88;;;6.10;99.90;;;;;;5023832;28;20022;-73
2021/10/10 03:02:34;;;;;;;7.43;3.45;;;6.10;99.90;;;;;;5024528;28;20038;-72
2021/10/10 03:04:59;;;;;;;10.85;4.30;;;6.00;99.90;;;;;;5023517;28;20053;-72
2021/10/10 03:07:25;;;;;;;9.45;3.55;;;6.00;99.90;;;;;;5024148;28;20037;-72
2021/10/10 03:09:50;;;;;;;12.40;3.90;;;6.10;99.90;;;;;;5024464;28;20034;-72
2021/10/10 03:12:16;;;;;;;10.93;4.28;;;6.00;99.90;;;;;;5024073;28;20073;-72
2021/10/10 03:14:41;;;;;;;10.60;4.15;;;6.10;99.90;;;;;;5024046;28;20106;-72
2021/10/10 03:17:07;;;;;;;9.45;4.00;;;6.00;99.90;;;;;;5024477;28;20022;-72
2021/10/10 03:19:33;;;;;;;8.40;4.22;;;6.00;99.90;;;;;;5023922;28;20022;-72
2021/10/10 03:21:59;;;;;;;8.40;3.65;;;6.00;99.90;;;;;;5023895;28;20398;-74
2021/10/10 03:24:25;;;;;;;9.20;3.78;;;6.00;99.90;;;;;;5022636;28;20434;-72
2021/10/10 03:26:51;;;;;;;7.68;4.40;;;5.90;99.90;;;;;;5023417;28;20064;-72
2021/10/10 03:29:16;;;;;;;12.57;4.20;;;5.90;99.90;;;;;;5023804;28;20030;-72
2021/10/10 03:31:42;;;;;;;7.45;4.03;;;5.90;99.90;;;;;;5023648;28;20046;-73
2021/10/10 03:34:08;;;;;;;20.75;4.55;;;5.80;99.90;;;;;;5023601;28;20122;-73
2021/10/10 03:36:34;;;;;;;13.60;4.57;;;5.80;99.90;;;;;;5022699;28;20041;-73
2021/10/10 03:38:59;;;;;;;8.85;4.28;;;5.80;99.90;;;;;;5023641;28;20032;-73
2021/10/10 03:41:25;;;;;;;11.20;4.15;;;5.80;99.90;;;;;;5023825;28;20030;-72
2021/10/10 03:43:50;;;;;;;8.77;3.65;;;5.80;99.90;;;;;;5023870;28;20022;-73
2021/10/10 03:46:16;;;;;;;8.95;4.43;;;5.70;99.90;;;;;;5023185;28;20038;-72
2021/10/10 03:48:41;;;;;;;10.35;4.40;;;5.80;99.90;;;;;;5023476;28;20497;-73
2021/10/10 03:51:08;;;;;;;16.42;4.95;;;5.70;99.90;;;;;;5025119;28;20044;-74
2021/10/10 03:54:04;;;;;;;7.57;4.15;;;5.70;99.90;;;;;;5027241;28;20037;-73
2021/10/10 03:56:19;;;;;;;8.20;3.78;;;5.80;99.90;;;;;;5026868;28;20038;-73
2021/10/10 03:58:45;;;;;;;20.23;4.57;;;5.70;99.90;;;;;;5025517;28;20045;-73
2021/10/10 04:01:11;;;;;;;7.97;3.75;;;5.70;99.90;;;;;;5026862;28;20037;-73
2021/10/10 04:03:37;;;;;;;10.10;4.28;;;5.70;99.90;;;;;;5027345;28;20040;-74
2021/10/10 04:06:04;;;;;;;8.02;3.47;;;5.70;99.90;;;;;;5026875;28;20022;-74
2021/10/10 04:08:30;;;;;;;9.73;3.55;;;5.70;99.90;;;;;;5026536;28;20025;-73
2021/10/10 04:10:56;;;;;;;8.23;3.85;;;5.60;99.90;;;;;;5027248;28;20022;-73
2021/10/10 04:13:21;;;;;;;11.63;3.97;;;5.60;99.90;;;;;;5027413;28;20029;-73
2021/10/10 04:15:47;;;;;;;8.85;3.97;;;5.70;99.90;;;;;;5026278;28;20501;-73
2021/10/10 04:18:13;;;;;;;10.80;4.38;;;5.60;99.90;;;;;;5026384;28;20030;-73
2021/10/10 04:20:39;;;;;;;9.57;4.13;;;5.60;99.90;;;;;;5026637;28;20102;-73
2021/10/10 04:23:05;;;;;;;9.90;3.58;;;5.60;99.90;;;;;;5026415;28;20060;-73
2021/10/10 04:25:30;;;;;;;9.40;3.42;;;5.70;99.90;;;;;;5026797;28;20022;-73
2021/10/10 04:27:56;;;;;;;15.70;3.78;;;5.60;99.90;;;;;;5024848;28;20018;-72
2021/10/10 04:30:22;;;;;;;7.38;4.00;;;5.50;99.90;;;;;;5026253;28;20057;-73
2021/10/10 04:32:47;;;;;;;9.63;4.45;;;5.50;99.90;;;;;;5026674;28;20033;-72
2021/10/10 04:35:13;;;;;;;7.57;3.88;;;5.50;99.90;;;;;;5026070;28;20034;-73
2021/10/10 04:37:40;;;;;;;11.73;4.40;;;5.50;99.90;;;;;;5026668;28;20069;-73
2021/10/10 04:40:07;;;;;;;15.27;4.07;;;5.50;99.90;;;;;;5026838;28;20089;-72
2021/10/10 04:42:34;;;;;;;5.28;3.05;;;5.40;99.90;;;;;;5026215;28;20022;-72
2021/10/10 04:45:00;;;;;;;15.25;4.93;;;5.40;99.90;;;;;;5024485;28;20038;-71
2021/10/10 04:47:25;;;;;;;7.22;4.10;;;5.40;99.90;;;;;;5026487;28;20033;-71
2021/10/10 04:49:51;;;;;;;7.35;3.50;;;5.40;99.90;;;;;;5025656;28;20049;-72
2021/10/10 04:52:17;;;;;;;13.40;5.10;;;5.40;99.90;;;;;;5025960;28;20045;-72
2021/10/10 04:54:47;;;;;;;8.85;4.00;;;5.40;99.90;;;;;;5025861;28;20030;-75
2021/10/10 04:57:14;;;;;;;8.27;3.88;;;5.30;99.90;;;;;;5025980;28;20029;-74
2021/10/10 04:59:40;;;;;;;6.18;3.33;;;5.30;99.90;;;;;;5026175;28;20121;-73
2021/10/10 05:02:06;;;;;;;9.45;4.32;;;5.30;99.90;;;;;;5025574;28;20140;-73
2021/10/10 05:04:31;;;;;;;8.15;3.92;;;5.20;99.90;;;;;;5025972;28;20122;-73
2021/10/10 05:06:57;;;;;;;10.20;4.07;;;5.20;99.90;;;;;;5026233;28;20026;-73
2021/10/10 05:09:23;;;;;;;10.25;3.78;;;5.20;99.90;;;;;;5025580;28;20056;-74
2021/10/10 05:11:49;;;;;;;10.18;4.45;;;5.20;99.90;;;;;;5025196;28;20018;-72
2021/10/10 05:14:14;;;;;;;8.98;4.13;;;5.20;99.90;;;;;;5025969;28;20375;-73
2021/10/10 05:16:40;;;;;;;9.45;3.90;;;5.20;99.90;;;;;;5025405;28;20050;-73
2021/10/10 05:19:06;;;;;;;6.15;2.97;;;5.20;99.90;;;;;;5025366;28;20037;-72
2021/10/10 05:21:31;;;;;;;9.80;4.35;;;5.10;99.90;;;;;;5023971;28;20056;-72
2021/10/10 05:23:57;;;;;;;11.93;4.03;;;5.20;99.90;;;;;;5025429;28;20048;-72
2021/10/10 05:26:23;;;;;;;14.35;3.38;;;5.10;99.90;;;;;;5025687;28;20057;-71
2021/10/10 05:28:48;;;;;;;7.82;4.22;;;5.10;99.90;;;;;;5025623;28;20026;-71
2021/10/10 05:31:14;;;;;;;12.15;5.57;;;5.10;99.90;;;;;;5025138;28;20069;-71
2021/10/10 05:33:40;;;;;;;13.18;4.78;;;5.10;99.90;;;;;;5025609;28;20026;-73
2021/10/10 05:36:06;;;;;;;12.93;4.43;;;5.10;99.90;;;;;;5024073;28;20133;-71
2021/10/10 05:38:31;;;;;;;11.45;5.22;;;5.10;99.90;;;;;;5024032;28;20030;-71
2021/10/10 05:40:57;;;;;;;10.60;3.92;;;5.10;99.90;;;;;;5023594;28;20026;-72
2021/10/10 05:43:23;;;;;;;8.52;3.67;;;5.10;99.90;;;;;;5025516;28;20037;-72
2021/10/10 05:45:49;;;;;;;9.07;3.95;;;5.10;99.90;;;;;;5024667;28;20065;-72
2021/10/10 05:48:15;;;;;;;5.93;3.67;;;5.10;99.90;;;;;;5025565;28;20052;-72
2021/10/10 05:50:40;;;;;;;10.55;4.35;;;5.10;99.90;;;;;;5025347;28;20069;-72
2021/10/10 05:53:07;;;;;;;12.45;4.53;;;5.00;99.90;;;;;;5024298;28;20025;-72
2021/10/10 05:55:34;;;;;;;10.02;4.13;;;5.00;99.90;;;;;;5025257;28;20034;-71
2021/10/10 05:58:03;;;;;;;12.27;5.10;;;5.00;99.90;;;;;;5024982;28;20046;-71
2021/10/10 06:00:29;;;;;;;11.95;4.47;;;5.00;99.90;;;;;;5024841;28;20026;-72
2021/10/10 06:02:54;;;;;;;8.60;4.22;;;5.00;99.90;;;;;;5024892;28;20033;-71
2021/10/10 06:05:20;;;;;;;12.70;4.75;;;5.00;99.90;;;;;;5024873;28;20042;-71
2021/10/10 06:07:46;;;;;;;9.65;4.25;;;5.00;99.90;;;;;;5024065;28;20030;-72
2021/10/10 06:10:11;;;;;;;12.25;4.72;;;5.00;99.90;;;;;;5015619;28;20029;-72
2021/10/10 06:12:38;;;;;;;8.38;4.50;;;5.00;99.90;;;;;;5012547;28;20037;-72
2021/10/10 06:15:07;;;;;;;11.25;3.15;;;5.00;99.90;;;;;;5015217;28;20041;-71
2021/10/10 06:17:34;;;;;;;11.00;4.75;;;5.00;99.90;;;;;;5009269;28;20022;-72
2021/10/10 06:20:02;;;;;;;7.90;4.10;;;5.10;99.90;;;;;;5017136;28;20045;-71
2021/10/10 06:22:28;;;;;;;9.30;4.13;;;5.10;99.90;;;;;;5024420;28;20026;-72
2021/10/10 06:24:54;;;;;;;18.05;4.75;;;5.10;99.90;;;;;;5024103;28;20030;-72
2021/10/10 06:27:19;;;;;;;12.07;4.35;;;5.10;99.90;;;;;;5023993;28;20030;-72
2021/10/10 06:29:45;;;;;;;8.48;4.15;;;5.20;99.90;;;;;;5024411;28;20021;-72
2021/10/10 06:32:11;;;;;;;7.93;4.18;;;5.20;99.90;;;;;;5025035;28;20065;-72
2021/10/10 06:34:38;;;;;;;8.05;4.15;;;5.30;99.90;;;;;;5022095;28;20398;-73
2021/10/10 06:37:04;;;;;;;8.02;4.13;;;5.30;99.90;;;;;;5024800;28;20053;-71
2021/10/10 06:39:30;;;;;;;12.48;5.05;;;5.30;99.90;;;;;;5024073;28;20026;-72
2021/10/10 06:41:55;;;;;;;10.13;4.65;;;5.30;99.90;;;;;;5023209;28;20030;-72
2021/10/10 06:44:21;;;;;;;10.10;3.85;;;5.30;99.90;;;;;;5023171;28;20026;-72
2021/10/10 06:46:47;;;;;;;9.35;3.88;;;5.40;99.90;;;;;;5022635;28;20042;-73
2021/10/10 06:49:13;;;;;;;12.88;5.10;;;5.50;99.90;;;;;;5023440;28;20025;-72
2021/10/10 06:51:40;;;;;;;9.98;4.38;;;5.50;99.90;;;;;;5024851;28;20026;-73
2021/10/10 06:54:06;;;;;;;11.23;4.20;;;5.50;99.90;;;;;;5021510;28;20513;-73
2021/10/10 06:56:31;;;;;;;10.52;4.47;;;5.60;99.90;;;;;;5023621;28;20044;-72
2021/10/10 06:58:57;;;;;;;18.95;4.82;;;5.60;99.90;;;;;;5023527;28;20106;-72
2021/10/10 07:01:23;;;;;;;8.48;4.00;;;5.70;99.90;;;;;;5020832;28;20037;-73
2021/10/10 07:03:49;;;;;;;10.50;4.97;;;5.80;99.90;;;;;;5009454;28;20034;-72
2021/10/10 07:06:15;;;;;;;19.85;4.97;;;5.70;99.90;;;;;;5023788;28;20037;-73
2021/10/10 07:08:41;;;;;;;10.20;4.07;;;5.90;99.90;;;;;;5023188;28;20113;-72
2021/10/10 07:11:08;;;;;;;8.43;3.65;;;5.80;99.90;;;;;;5022578;28;20034;-72
2021/10/10 07:13:33;;;;;;;22.67;4.47;;;6.00;99.90;;;;;;5022503;28;20113;-72
2021/10/10 07:15:59;;;;;;;9.20;4.30;;;6.10;99.90;;;;;;5023241;28;20284;-73
2021/10/10 07:18:27;;;;;;;10.43;4.80;;;6.30;99.90;;;;;;5022596;28;20030;-73
2021/10/10 07:23:55;;;;;;;12.70;4.60;;;6.50;99.90;;;;;;5023928;28;20026;-74
2021/10/10 07:26:24;;;;;;;9.57;4.38;;;6.60;99.90;;;;;;5026625;28;20048;-73
2021/10/10 07:28:51;;;;;;;9.27;4.22;;;6.80;99.90;;;;;;5027548;28;20022;-72
2021/10/10 07:31:18;;;;;;;15.48;4.25;;;6.80;99.90;;;;;;5027298;28;20049;-73
2021/10/10 07:33:44;;;;;;;11.55;4.05;;;7.00;99.90;;;;;;5027324;28;20030;-72
2021/10/10 07:36:10;;;;;;;8.38;4.05;;;7.20;99.90;;;;;;5027207;28;20030;-73
2021/10/10 07:38:36;;;;;;;11.57;5.05;;;7.50;99.90;;;;;;5027604;28;20030;-72
2021/10/10 07:41:03;;;;;;;8.45;4.15;;;7.80;99.90;;;;;;5026159;28;20076;-73
2021/10/10 07:43:30;;;;;;;12.77;5.22;;;8.10;99.90;;;;;;5024924;28;20026;-73
2021/10/10 07:46:05;;;;;;;11.40;4.75;;;8.30;99.90;;;;;;5027508;28;20037;-72
2021/10/10 07:48:31;;;;;;;9.90;4.53;;;8.60;99.90;;;;;;5027357;28;20030;-72
2021/10/10 07:50:57;;;;;;;12.70;4.15;;;8.90;99.90;;;;;;5027468;28;20026;-73
2021/10/10 07:53:22;;;;;;;16.15;5.65;;;9.10;99.90;;;;;;5027581;28;20037;-72
2021/10/10 07:55:48;;;;;;;8.70;3.67;;;9.20;99.90;;;;;;5026311;28;20038;-72
2021/10/10 07:58:14;;;;;;;11.05;4.07;;;9.30;99.90;;;;;;5026866;28;20034;-72
2021/10/10 08:00:40;;;;;;;17.13;5.35;;;9.30;99.90;;;;;;5025708;28;20068;-74
2021/10/10 08:03:05;;;;;;;9.90;4.28;;;9.10;99.90;;;;;;5025776;28;20034;-73
2021/10/10 08:05:38;;;;;;;9.30;3.80;;;9.00;99.90;;;;;;5026736;28;20486;-72
2021/10/10 08:08:04;;;;;;;11.30;4.90;;;8.90;99.90;;;;;;5026038;28;20134;-72
2021/10/10 08:10:31;;;;;;;10.43;5.03;;;8.60;99.90;;;;;;5025684;28;20486;-73
2021/10/10 08:12:56;;;;;;;8.43;3.88;;;8.50;99.90;;;;;;5025884;28;20405;-73
2021/10/10 08:15:22;;;;;;;8.10;4.20;;;8.40;99.90;;;;;;5026904;28;20472;-72
2021/10/10 08:17:47;;;;;;;8.55;4.30;;;8.30;99.90;;;;;;5025446;28;20382;-73
2021/10/10 08:20:14;;;;;;;9.60;4.75;;;8.20;99.90;;;;;;5023605;28;20030;-73
2021/10/10 08:22:40;;;;;;;10.95;4.43;;;8.10;99.90;;;;;;5026156;28;20026;-72
2021/10/10 08:25:10;;;;;;;11.57;5.38;;;8.10;99.90;;;;;;5026705;28;20041;-73
2021/10/10 08:27:38;;;;;;;8.93;4.13;;;8.10;99.90;;;;;;5026656;28;21013;-73
2021/10/10 08:30:06;;;;;;;8.48;4.20;;;8.10;99.90;;;;;;5026697;28;20030;-72
2021/10/10 08:32:32;;;;;;;10.20;4.80;;;8.20;99.90;;;;;;5025707;28;20097;-72
2021/10/10 08:34:57;;;;;;;9.52;4.28;;;8.20;99.90;;;;;;5026214;28;20022;-72
2021/10/10 08:37:23;;;;;;;8.10;3.92;;;8.20;99.90;;;;;;5019275;28;20108;-72
2021/10/10 08:39:49;;;;;;;14.50;4.47;;;8.30;99.90;;;;;;5020140;28;20026;-72
2021/10/10 08:42:21;;;;;;;10.18;4.93;;;8.40;99.90;;;;;;5018924;28;20152;-70
2021/10/10 08:44:52;;;;;;;12.82;4.95;;;8.40;99.90;;;;;;5018412;28;20034;-72
2021/10/10 08:47:18;;;;;;;13.68;5.13;;;8.60;99.90;;;;;;5022493;28;20023;-72
2021/10/10 08:49:45;;;;;;;9.95;4.65;;;8.80;99.90;;;;;;5025485;28;20474;-72
2021/10/10 08:52:14;;;;;;;9.60;5.07;;;9.00;99.90;;;;;;5021599;28;20026;-74
2021/10/10 08:54:42;;;;;;;9.95;4.75;;;9.10;99.90;;;;;;5020352;28;20030;-72
2021/10/10 08:57:09;;;;;;;11.35;4.35;;;9.20;99.90;;;;;;5026055;28;20021;-72
2021/10/10 08:59:39;;;;;;;18.05;5.07;;;9.30;99.90;;;;;;5024936;28;20021;-70
2021/10/10 09:02:17;;;;;;;13.85;4.95;;;9.30;99.90;;;;;;5013766;28;20491;-72
2021/10/10 09:04:43;;;;;;;11.70;5.47;;;9.40;99.90;;;;;;5025117;28;20030;-71
2021/10/10 09:07:13;;;;;;;13.27;5.57;;;9.40;99.90;;;;;;5026213;28;20120;-73
2021/10/10 09:09:41;;;;;;;8.73;4.32;;;9.50;99.90;;;;;;5024427;28;20375;-72
2021/10/10 09:12:13;;;;;;;18.10;6.00;;;9.50;99.90;;;;;;5026063;28;20479;-74
2021/10/10 09:14:50;;;;;;;21.63;4.57;;;9.60;99.90;;;;;;5025395;28;20033;-73
2021/10/10 09:17:23;;;;;;;8.00;4.32;;;9.80;99.90;;;;;;5023429;28;20026;-73
2021/10/10 09:19:58;;;;;;;10.60;5.03;;;9.90;99.90;;;;;;5025647;28;20037;-70
2021/10/10 09:22:25;;;;;;;10.73;4.60;;;10.00;99.90;;;;;;5024522;28;20581;-71
2021/10/10 09:24:55;;;;;;;6.55;4.15;;;10.10;99.90;;;;;;5025195;28;20038;-70
2021/10/10 09:27:26;;;;;;;13.75;4.85;;;10.20;99.90;;;;;;5025491;28;20052;-70
2021/10/10 09:29:53;;;;;;;11.02;5.20;;;10.30;99.90;;;;;;5025174;28;20026;-72
2021/10/10 09:32:26;;;;;;;26.08;4.95;;;10.20;99.90;;;;;;5025032;28;20114;-71
2021/10/10 09:34:52;;;;;;;11.27;5.25;;;10.30;99.90;;;;;;5024961;28;20038;-71
2021/10/10 09:37:23;;;;;;;9.52;4.80;;;10.30;99.90;;;;;;5023595;28;20022;-72
2021/10/10 09:42:39;;;;;;;11.10;4.93;;;10.50;99.90;;;;;;5024620;28;20045;-71
2021/10/10 09:45:24;;;;;;;11.95;5.03;;;10.70;99.90;;;;;;5024217;28;20038;-70
2021/10/10 09:48:00;;;;;;;10.18;4.57;;;10.50;99.90;;;;;;5033622;28;20482;-71
2021/10/10 09:50:30;;;;;;;11.23;5.22;;;10.50;99.90;;;;;;5005257;28;20029;-72
2021/10/10 09:53:00;;;;;;;21.48;6.25;;;10.50;99.90;;;;;;5003081;28;20026;-71
2021/10/10 09:55:28;;;;;;;10.68;5.20;;;10.60;99.90;;;;;;5017968;28;20049;-72
2021/10/10 09:57:54;;;;;;;11.95;5.07;;;10.60;99.90;;;;;;5024552;28;20030;-73
2021/10/10 10:00:21;;;;;;;10.55;4.40;;;10.70;99.90;;;;;;5024218;28;20034;-73
2021/10/10 10:02:48;;;;;;;14.43;5.10;;;10.80;99.90;;;;;;5024952;28;20094;-72
2021/10/10 10:05:26;;;;;;;14.18;5.00;;;10.90;99.90;;;;;;5024040;28;20052;-71
2021/10/10 10:07:53;;;;;;;12.00;4.95;;;11.00;99.90;;;;;;5024363;28;20049;-72
2021/10/10 10:10:20;;;;;;;10.85;4.82;;;11.00;99.90;;;;;;5024491;28;20109;-72
2021/10/10 10:12:48;;;;;;;10.20;4.85;;;11.10;99.90;;;;;;5024262;28;20397;-74
2021/10/10 10:15:14;;;;;;;10.98;5.13;;;11.20;99.90;;;;;;5028233;28;20550;-73
2021/10/10 10:17:40;;;;;;;15.48;5.40;;;11.30;99.90;;;;;;5024756;28;20062;-72
2021/10/10 10:20:09;;;;;;;11.65;5.30;;;11.50;99.90;;;;;;5024053;28;20074;-72
2021/10/10 10:22:36;;;;;;;11.93;5.03;;;11.60;99.90;;;;;;5023036;28;20026;-71
2021/10/10 10:25:06;;;;;;;10.43;5.05;;;11.70;99.90;;;;;;5022056;28;20030;-72
2021/10/10 10:27:32;;;;;;;11.50;5.03;;;11.80;99.90;;;;;;5023101;28;20044;-72
2021/10/10 10:29:58;;;;;;;14.48;5.53;;;11.90;99.90;;;;;;5023978;28;20030;-73
2021/10/10 10:32:28;;;;;;;10.63;4.93;;;11.90;99.90;;;;;;5035150;28;20030;-73
2021/10/10 10:34:58;;;;;;;10.10;5.03;;;11.90;99.90;;;;;;5030929;28;20044;-74
2021/10/10 10:37:43;;;;;;;11.35;5.72;;;11.90;99.90;;;;;;5023594;28;20060;-72
2021/10/10 10:40:16;;;;;;;9.45;4.32;;;11.90;99.90;;;;;;5023070;28;20089;-73
2021/10/10 10:42:46;;;;;;;13.38;4.95;;;11.90;99.90;;;;;;5023246;28;20410;-74
2021/10/10 10:45:33;;;;;;;9.50;4.53;;;11.90;99.90;;;;;;5023731;28;20098;-73
2021/10/10 10:48:46;;;;;;;8.82;4.18;;;11.80;99.90;;;;;;5021966;28;20034;-72
2021/10/10 10:51:22;;;;;;;;;;;11.80;99.90;;;;;;4985403;28;20553;-72
2021/10/10 10:53:49;;;;;;;15.30;4.63;;;11.60;99.90;;;;;;5001302;28;19955;-72
2021/10/10 10:56:25;;;;;;;12.75;5.20;;;11.50;99.90;;;;;;5013860;28;20038;-71
2021/10/10 10:58:58;;;;;;;11.75;6.30;;;11.40;99.90;;;;;;5021492;28;20041;-71
2021/10/10 11:01:24;;;;;;;8.32;4.50;;;11.30;99.90;;;;;;5023813;28;20029;-71
2021/10/10 11:03:49;;;;;;;8.68;4.68;;;11.30;99.90;;;;;;5026422;28;20022;-72
2021/10/10 11:06:17;;;;;;;10.93;4.63;;;11.40;99.90;;;;;;5027430;28;20084;-72
2021/10/10 11:08:45;;;;;;;11.98;5.18;;;11.40;99.90;;;;;;5026900;28;20021;-72
2021/10/10 11:11:25;;;;;;;8.93;4.15;;;11.60;99.90;;;;;;5027748;28;20079;-72
2021/10/10 11:13:58;;;;;;;13.52;5.22;;;12.00;99.90;;;;;;5026794;28;20038;-71
2021/10/10 11:16:29;;;;;;;20.48;4.82;;;12.30;99.90;;;;;;5006983;28;20022;-71
2021/10/10 11:19:04;;;;;;;12.95;5.85;;;12.60;99.90;;;;;;5007505;28;20034;-71
2021/10/10 11:21:37;;;;;;;11.18;4.95;;;12.90;99.90;;;;;;5007655;28;20026;-71
2021/10/10 11:24:10;;;;;;;13.07;5.50;;;13.20;99.90;;;;;;5022812;28;20030;-73
2021/10/10 11:26:37;;;;;;;8.82;4.10;;;13.40;99.90;;;;;;5025563;28;20052;-73
2021/10/10 11:29:08;;;;;;;12.60;5.45;;;13.60;99.90;;;;;;5026687;28;20030;-71
2021/10/10 11:31:36;;;;;;;11.85;5.15;;;13.80;99.90;;;;;;5026826;28;20508;-72
2021/10/10 11:34:05;;;;;;;16.85;5.07;;;14.20;99.90;;;;;;5026966;28;20034;-70
2021/10/10 11:36:47;;;;;;;13.02;4.80;;;14.50;99.90;;;;;;5017106;28;20041;-71
2021/10/10 11:39:19;;;;;;;15.15;5.93;;;14.80;99.90;;;;;;5025012;28;20034;-72
2021/10/10 11:41:57;;;;;;;16.88;5.60;;;15.10;99.90;;;;;;5025900;28;20073;-72
2021/10/10 11:44:39;;;;;;;12.60;5.20;;;15.40;99.90;;;;;;5026179;28;20053;-73
2021/10/10 11:47:16;;;;;;;9.52;4.43;;;15.80;99.90;;;;;;5025944;28;20041;-72
2021/10/10 11:49:45;;;;;;;10.73;5.57;;;16.10;99.90;;;;;;5022796;28;20133;-74
2021/10/10 11:54:49;;;;;;;13.75;5.75;;;16.60;99.90;;;;;;5027347;28;20033;-73
2021/10/10 11:57:15;;;;;;;13.80;5.88;;;16.90;99.90;;;;;;5027231;28;20811;-72
2021/10/10 12:00:10;;;;;;;12.15;5.78;;;17.20;99.90;;;;;;5027265;28;20473;-73
2021/10/10 12:02:37;;;;;;;12.20;5.82;;;17.40;99.90;;;;;;5026322;28;20062;-74
2021/10/10 12:05:08;;;;;;;11.18;4.90;;;17.60;99.90;;;;;;5026877;28;20049;-75
2021/10/10 12:07:34;;;;;;;12.65;5.93;;;17.70;99.90;;;;;;5027515;28;20030;-72
2021/10/10 12:10:01;;;;;;;22.10;6.25;;;18.00;99.90;;;;;;5027087;28;20038;-73
2021/10/10 12:12:27;;;;;;;15.15;6.22;;;18.10;99.90;;;;;;5025768;28;20033;-72
2021/10/10 12:14:54;;;;;;;14.00;6.38;;;18.30;99.90;;;;;;5026990;28;20030;-72
2021/10/10 12:17:37;;;;;;;10.60;5.53;;;18.40;99.90;;;;;;5025751;28;20030;-72
2021/10/10 12:20:15;;;;;;;17.13;6.20;;;18.60;99.90;;;;;;5025251;28;20032;-73
2021/10/10 12:22:52;;;;;;;12.00;6.35;;;18.70;99.90;;;;;;5026940;28;20026;-74
2021/10/10 12:25:37;;;;;;;11.85;5.85;;;18.80;99.90;;;;;;5026334;28;20394;-74
2021/10/10 12:28:13;;;;;;;13.70;5.53;;;18.90;99.90;;;;;;5026585;28;20038;-74
2021/10/10 12:30:43;;;;;;;12.32;6.28;;;18.80;99.90;;;;;;5024977;28;20192;-73
2021/10/10 12:33:22;;;;;;;11.93;5.35;;;18.80;99.90;;;;;;5025977;28;20502;-74
2021/10/10 12:35:58;;;;;;;10.50;5.63;;;18.60;99.90;;;;;;5024400;28;20053;-72
2021/10/10 12:38:34;;;;;;;14.10;6.00;;;18.30;99.90;;;;;;5024991;28;20033;-72
2021/10/10 12:41:02;;;;;;;10.38;5.80;;;18.10;99.90;;;;;;5026250;28;20044;-73
2021/10/10 12:43:48;;;;;;;14.15;5.95;;;17.90;99.90;;;;;;5025186;28;20034;-74
2021/10/10 12:46:13;;;;;;;11.63;6.07;;;17.70;99.90;;;;;;5026011;28;20030;-73
2021/10/10 12:48:40;;;;;;;19.80;6.43;;;17.70;99.90;;;;;;5025707;28;20101;-74
2021/10/10 12:51:15;;;;;;;12.25;6.30;;;17.60;99.90;;;;;;5026469;28;20029;-72
2021/10/10 12:53:41;;;;;;;18.92;6.38;;;17.50;99.90;;;;;;5026159;28;20030;-73
2021/10/10 12:56:14;;;;;;;20.73;6.32;;;17.60;99.90;;;;;;5018588;28;20081;-75
2021/10/10 12:58:52;;;;;;;13.35;6.47;;;17.70;99.90;;;;;;5015129;28;20034;-74
2021/10/10 13:01:21;;;;;;;13.20;6.15;;;17.80;99.90;;;;;;5013159;28;20041;-73